createdAt,value
2018-09-23T00:00:58.520Z,6.20
2018-09-23T00:03:01.541Z,6.33
2018-09-23T00:05:04.631Z,6.03
2018-09-23T00:07:07.578Z,5.10
2018-09-23T00:09:10.662Z,6.47
2018-09-23T00:11:13.642Z,6.70
2018-09-23T00:13:16.578Z,6.07
2018-09-23T00:15:19.601Z,6.37
2018-09-23T00:17:22.574Z,6.80
2018-09-23T00:19:25.529Z,6.07
2018-09-23T00:21:29.959Z,5.90
2018-09-23T00:23:32.997Z,6.70
2018-09-23T00:25:35.958Z,6.00
2018-09-23T00:27:38.953Z,5.93
2018-09-23T00:29:48.220Z,7.87
2018-09-23T00:31:51.760Z,8.23
2018-09-23T00:33:54.686Z,6.77
2018-09-23T00:35:59.398Z,6.70
2018-09-23T00:38:02.526Z,6.90
2018-09-23T00:40:05.849Z,6.53
2018-09-23T00:42:08.890Z,6.93
2018-09-23T00:44:11.895Z,6.70
2018-09-23T00:46:14.888Z,6.83
2018-09-23T00:48:17.987Z,7.77
2018-09-23T00:50:20.969Z,7.60
2018-09-23T00:52:24.070Z,7.83
2018-09-23T00:54:28.881Z,8.00
2018-09-23T00:56:31.840Z,8.57
2018-09-23T00:58:35.238Z,8.23
2018-09-23T01:00:38.273Z,8.03
2018-09-23T01:02:41.241Z,7.43
2018-09-23T01:04:44.255Z,7.77
2018-09-23T01:06:47.411Z,9.00
2018-09-23T01:08:50.366Z,9.50
2018-09-23T01:10:53.412Z,8.60
2018-09-23T01:12:57.798Z,8.17
2018-09-23T01:15:00.795Z,7.90
2018-09-23T01:17:03.763Z,8.30
2018-09-23T01:19:06.738Z,8.83
2018-09-23T01:21:09.716Z,8.73
2018-09-23T01:23:12.664Z,8.70
2018-09-23T01:25:15.615Z,8.13
2018-09-23T01:27:18.618Z,7.57
2018-09-23T01:29:21.585Z,8.40
2018-09-23T01:31:24.633Z,7.50
2018-09-23T01:33:28.929Z,7.60
2018-09-23T01:35:31.908Z,7.70
2018-09-23T01:37:34.876Z,8.90
2018-09-23T01:39:37.880Z,9.53
2018-09-23T01:41:40.863Z,9.20
2018-09-23T01:43:43.834Z,7.83
2018-09-23T01:45:46.847Z,8.70
2018-09-23T01:47:49.779Z,8.00
2018-09-23T01:49:52.760Z,7.57
2018-09-23T01:51:55.743Z,8.10
2018-09-23T01:53:58.942Z,7.73
2018-09-23T01:56:01.924Z,8.67
2018-09-23T01:58:04.966Z,7.60
2018-09-23T02:00:07.991Z,8.03
2018-09-23T02:02:10.961Z,7.80
2018-09-23T02:04:13.935Z,8.83
2018-09-23T02:06:16.874Z,7.63
2018-09-23T02:08:19.842Z,7.87
2018-09-23T02:10:22.890Z,7.30
2018-09-23T02:12:27.850Z,8.23
2018-09-23T02:14:30.931Z,8.70
2018-09-23T02:16:33.895Z,8.63
2018-09-23T02:18:36.849Z,8.40
2018-09-23T02:20:39.832Z,8.00
2018-09-23T02:22:43.414Z,9.70
2018-09-23T02:24:46.360Z,8.33
2018-09-23T02:26:49.327Z,8.93
2018-09-23T02:28:52.411Z,7.93
2018-09-23T02:30:55.388Z,8.33
2018-09-23T02:32:59.733Z,9.80
2018-09-23T02:35:02.719Z,8.67
2018-09-23T02:37:05.762Z,9.50
2018-09-23T02:39:09.903Z,8.63
2018-09-23T02:41:12.924Z,8.83
2018-09-23T02:43:15.894Z,9.30
2018-09-23T02:45:18.914Z,9.90
2018-09-23T02:47:21.914Z,9.67
2018-09-23T02:49:24.942Z,8.50
2018-09-23T02:51:29.444Z,9.13
2018-09-23T02:53:32.432Z,10.60
2018-09-23T02:55:35.383Z,9.60
2018-09-23T02:57:38.347Z,9.80
2018-09-23T02:59:41.307Z,9.07
2018-09-23T03:01:44.254Z,9.00
2018-09-23T03:03:47.232Z,9.90
2018-09-23T03:05:50.269Z,9.07
2018-09-23T03:07:53.255Z,9.97
2018-09-23T03:09:57.403Z,9.03
2018-09-23T03:12:00.536Z,10.07
2018-09-23T03:14:03.504Z,9.77
2018-09-23T03:16:06.548Z,9.70
2018-09-23T03:18:09.575Z,9.53
2018-09-23T03:20:12.525Z,7.93
2018-09-23T03:22:15.500Z,9.03
2018-09-23T03:24:18.506Z,9.30
2018-09-23T03:26:21.487Z,7.93
2018-09-23T03:28:24.415Z,9.80
2018-09-23T03:30:29.440Z,9.90
2018-09-23T03:32:32.389Z,8.97
2018-09-23T03:34:35.399Z,10.13
2018-09-23T03:36:38.393Z,9.53
2018-09-23T03:38:41.407Z,10.03
2018-09-23T03:40:44.337Z,10.57
2018-09-23T03:42:47.491Z,9.70
2018-09-23T03:44:50.468Z,9.63
2018-09-23T03:46:53.510Z,10.40
2018-09-23T03:48:58.072Z,10.60
2018-09-23T03:51:01.070Z,10.20
2018-09-23T03:53:04.208Z,9.53
2018-09-23T03:55:07.187Z,10.63
2018-09-23T03:57:10.135Z,9.10
2018-09-23T03:59:13.525Z,11.10
2018-09-23T04:01:16.527Z,9.70
2018-09-23T04:03:19.803Z,10.63
2018-09-23T04:05:22.820Z,10.97
2018-09-23T04:07:25.774Z,10.37
2018-09-23T04:09:30.002Z,10.63
2018-09-23T04:11:32.945Z,10.20
2018-09-23T04:13:36.097Z,11.03
2018-09-23T04:15:39.129Z,10.80
2018-09-23T04:17:42.141Z,9.37
2018-09-23T04:19:45.097Z,9.70
2018-09-23T04:21:48.215Z,9.00
2018-09-23T04:23:51.149Z,9.47
2018-09-23T04:25:54.103Z,10.77
2018-09-23T04:27:58.794Z,9.70
2018-09-23T04:30:01.748Z,9.70
2018-09-23T04:32:04.841Z,10.03
2018-09-23T04:34:07.810Z,10.23
2018-09-23T04:36:10.810Z,9.87
2018-09-23T04:38:13.748Z,9.90
2018-09-23T04:40:16.939Z,10.87
2018-09-23T04:42:19.890Z,11.00
2018-09-23T04:44:22.873Z,9.80
2018-09-23T04:46:27.513Z,10.20
2018-09-23T04:48:30.470Z,9.23
2018-09-23T04:50:33.446Z,10.03
2018-09-23T04:52:36.384Z,9.23
2018-09-23T04:54:39.320Z,10.20
2018-09-23T04:56:42.260Z,9.70
2018-09-23T04:58:45.231Z,9.20
2018-09-23T05:00:48.418Z,10.20
2018-09-23T05:02:51.355Z,8.23
2018-09-23T05:04:54.330Z,8.50
2018-09-23T05:06:58.642Z,8.50
2018-09-23T05:09:01.641Z,8.30
2018-09-23T05:11:04.566Z,9.77
2018-09-23T05:13:07.570Z,8.55
2018-09-23T05:15:10.487Z,8.40
2018-09-23T05:17:13.886Z,7.87
2018-09-23T05:19:16.919Z,9.13
2018-09-23T05:21:19.854Z,8.17
2018-09-23T05:23:22.835Z,8.60
2018-09-23T05:25:28.152Z,7.93
2018-09-23T05:27:31.155Z,8.70
2018-09-23T05:29:34.376Z,8.37
2018-09-23T05:31:37.311Z,8.70
2018-09-23T05:34:14.049Z,8.30
2018-09-23T05:36:17.035Z,7.23
2018-09-23T05:38:20.274Z,8.80
2018-09-23T05:40:23.751Z,7.83
2018-09-23T05:42:28.893Z,7.83
2018-09-23T05:44:31.869Z,7.67
2018-09-23T05:46:34.874Z,9.13
2018-09-23T05:48:37.833Z,8.77
2018-09-23T05:50:40.826Z,8.30
2018-09-23T05:52:43.790Z,8.13
2018-09-23T05:54:46.765Z,8.03
2018-09-23T05:56:49.882Z,7.60
2018-09-23T05:58:52.863Z,9.10
2018-09-23T06:00:57.356Z,7.77
2018-09-23T06:03:00.325Z,7.80
2018-09-23T06:05:03.329Z,8.93
2018-09-23T06:07:06.356Z,7.30
2018-09-23T06:09:09.343Z,7.20
2018-09-23T06:11:12.322Z,7.23
2018-09-23T06:13:15.262Z,7.20
2018-09-23T06:15:18.434Z,7.13
2018-09-23T06:17:21.421Z,6.37
2018-09-23T06:19:24.440Z,7.60
2018-09-23T06:21:28.985Z,6.43
2018-09-23T06:23:31.991Z,7.50
2018-09-23T06:25:34.987Z,7.20
2018-09-23T06:27:38.182Z,7.90
2018-09-23T06:29:41.154Z,8.00
2018-09-23T06:31:44.129Z,7.60
2018-09-23T06:33:47.124Z,8.20
2018-09-23T06:35:50.061Z,8.67
2018-09-23T06:37:53.013Z,9.67
2018-09-23T06:39:57.874Z,8.70
2018-09-23T06:42:00.876Z,8.73
2018-09-23T06:44:03.870Z,9.37
2018-09-23T06:46:06.869Z,9.03
2018-09-23T06:48:09.875Z,8.73
2018-09-23T06:50:12.884Z,8.70
2018-09-23T06:52:15.836Z,8.53
2018-09-23T06:54:18.836Z,8.70
2018-09-23T06:56:21.857Z,8.27
2018-09-23T06:58:24.945Z,8.93
2018-09-23T07:00:30.008Z,8.87
2018-09-23T07:02:32.969Z,9.37
2018-09-23T07:04:36.140Z,9.37
2018-09-23T07:06:39.097Z,8.50
2018-09-23T07:08:42.091Z,8.67
2018-09-23T07:10:45.242Z,9.17
2018-09-23T07:12:48.230Z,9.03
2018-09-23T07:14:51.200Z,8.27
2018-09-23T07:16:54.216Z,9.00
2018-09-23T07:18:58.394Z,7.80
2018-09-23T07:21:01.355Z,8.60
2018-09-23T07:23:04.392Z,7.67
2018-09-23T07:25:07.421Z,8.30
2018-09-23T07:27:10.420Z,8.80
2018-09-23T07:29:13.555Z,8.07
2018-09-23T07:31:16.566Z,7.40
2018-09-23T07:33:19.502Z,7.57
2018-09-23T07:35:22.550Z,8.17
2018-09-23T07:37:25.595Z,7.50
2018-09-23T07:39:30.110Z,8.50
2018-09-23T07:41:33.016Z,8.13
2018-09-23T07:43:35.986Z,6.93
2018-09-23T07:45:39.076Z,7.10
2018-09-23T07:47:42.016Z,7.43
2018-09-23T07:49:44.954Z,7.60
2018-09-23T07:51:48.065Z,7.90
2018-09-23T07:53:51.034Z,6.30
2018-09-23T07:55:53.982Z,7.03
2018-09-23T07:57:57.231Z,6.80
2018-09-23T08:00:00.563Z,6.43
2018-09-23T08:02:03.535Z,6.90
2018-09-23T08:04:06.557Z,6.93
2018-09-23T08:06:09.539Z,6.67
2018-09-23T08:08:12.511Z,6.67
2018-09-23T08:10:15.516Z,6.40
2018-09-23T08:12:18.563Z,5.80
2018-09-23T08:14:21.918Z,5.47
2018-09-23T08:16:24.587Z,6.20
2018-09-23T08:18:29.110Z,6.60
2018-09-23T08:20:32.142Z,5.20
2018-09-23T08:22:35.050Z,6.27
2018-09-23T08:24:38.035Z,4.73
2018-09-23T08:26:41.093Z,5.90
2018-09-23T08:28:44.031Z,5.23
2018-09-23T08:30:47.106Z,6.50
2018-09-23T08:32:50.938Z,5.60
2018-09-23T08:34:53.932Z,4.90
2018-09-23T08:36:58.198Z,4.03
2018-09-23T08:39:01.209Z,5.17
2018-09-23T08:41:04.392Z,4.57
2018-09-23T08:43:07.475Z,4.00
2018-09-23T08:45:10.444Z,5.60
2018-09-23T08:47:13.633Z,4.27
2018-09-23T08:49:16.579Z,4.30
2018-09-23T08:51:19.921Z,3.80
2018-09-23T08:53:23.130Z,4.90
2018-09-23T08:55:27.936Z,3.53
2018-09-23T08:57:30.999Z,4.00
2018-09-23T08:59:34.137Z,4.20
2018-09-23T09:01:37.082Z,4.27
2018-09-23T09:03:41.033Z,3.60
2018-09-23T09:05:44.959Z,5.13
2018-09-23T09:07:48.557Z,3.60
2018-09-23T09:09:52.170Z,4.07
2018-09-23T09:11:57.454Z,4.67
2018-09-23T09:14:00.787Z,5.87
2018-09-23T09:16:04.726Z,4.20
2018-09-23T09:18:07.789Z,4.57
2018-09-23T09:20:11.677Z,3.63
2018-09-23T09:22:15.647Z,3.23
2018-09-23T09:24:19.557Z,38.33
2018-09-23T09:26:23.116Z,4.27
2018-09-23T09:28:28.460Z,4.40
2018-09-23T09:30:32.385Z,4.73
2018-09-23T09:32:36.245Z,4.40
2018-09-23T09:34:40.001Z,4.70
2018-09-23T09:36:43.912Z,4.00
2018-09-23T09:38:47.812Z,4.90
2018-09-23T09:40:51.295Z,4.77
2018-09-23T09:42:54.889Z,4.23
2018-09-23T09:45:00.803Z,4.53
2018-09-23T09:47:04.862Z,4.63
2018-09-23T09:49:08.632Z,4.13
2018-09-23T09:51:11.657Z,3.90
2018-09-23T09:53:14.648Z,4.10
2018-09-23T09:55:17.844Z,3.40
2018-09-23T09:57:20.831Z,3.73
2018-09-23T09:59:23.789Z,4.23
2018-09-23T10:01:27.200Z,3.53
2018-09-23T10:03:30.393Z,3.30
2018-09-23T10:05:33.444Z,4.10
2018-09-23T10:07:36.448Z,5.17
2018-09-23T10:09:39.488Z,4.20
2018-09-23T10:11:42.494Z,3.57
2018-09-23T10:13:45.515Z,4.60
2018-09-23T10:15:48.541Z,3.70
2018-09-23T10:17:51.581Z,4.20
2018-09-23T10:19:54.562Z,4.33
2018-09-23T10:21:59.005Z,4.50
2018-09-23T10:24:02.073Z,5.83
2018-09-23T10:26:05.421Z,5.40
2018-09-23T10:28:08.483Z,5.80
2018-09-23T10:30:11.470Z,5.60
2018-09-23T10:32:14.496Z,9.37
2018-09-23T10:34:17.569Z,14.97
2018-09-23T10:36:20.575Z,6.60
2018-09-23T10:38:23.656Z,6.80
2018-09-23T10:40:28.381Z,6.70
2018-09-23T10:42:31.403Z,7.60
2018-09-23T10:44:34.406Z,7.13
2018-09-23T10:46:37.733Z,7.47
2018-09-23T10:48:40.765Z,7.90
2018-09-23T10:50:43.807Z,8.23
2018-09-23T10:52:46.860Z,7.10
2018-09-23T10:54:49.903Z,6.30
2018-09-23T10:56:52.970Z,7.20
2018-09-23T10:58:57.476Z,6.20
2018-09-23T11:01:00.502Z,6.60
2018-09-23T11:03:03.598Z,6.27
2018-09-23T11:05:06.820Z,6.97
2018-09-23T11:07:09.877Z,6.80
2018-09-23T11:09:12.887Z,6.60
2018-09-23T11:11:16.324Z,6.00
2018-09-23T11:13:19.372Z,6.57
2018-09-23T11:15:22.477Z,7.00
2018-09-23T11:17:25.460Z,6.30
2018-09-23T11:19:29.861Z,7.73
2018-09-23T11:21:32.900Z,9.23
2018-09-23T11:23:36.319Z,8.10
2018-09-23T11:25:39.325Z,6.10
2018-09-23T11:27:42.360Z,6.30
2018-09-23T11:29:45.556Z,6.10
2018-09-23T11:31:48.626Z,5.50
2018-09-23T11:33:51.685Z,5.57
2018-09-23T11:35:54.913Z,8.50
2018-09-23T11:38:01.049Z,7.17
2018-09-23T11:40:04.525Z,7.60
2018-09-23T11:42:07.771Z,6.60
2018-09-23T11:44:10.779Z,6.43
2018-09-23T11:46:13.787Z,7.33
2018-09-23T11:48:16.829Z,6.37
2018-09-23T11:50:19.832Z,4.73
2018-09-23T11:52:22.904Z,5.90
2018-09-23T11:54:27.539Z,5.40
2018-09-23T11:56:30.543Z,5.67
2018-09-23T11:58:33.544Z,5.20
2018-09-23T12:00:36.872Z,5.53
2018-09-23T12:02:40.808Z,5.10
2018-09-23T12:04:43.790Z,5.90
2018-09-23T12:06:47.788Z,5.30
2018-09-23T12:08:50.806Z,6.23
2018-09-23T12:10:53.925Z,5.50
2018-09-23T12:12:58.166Z,5.53
2018-09-23T12:15:01.182Z,5.70
2018-09-23T12:17:04.236Z,5.70
2018-09-23T12:19:07.268Z,6.33
2018-09-23T12:21:10.315Z,5.70
2018-09-23T12:23:13.339Z,5.87
2018-09-23T12:25:16.375Z,6.33
2018-09-23T12:27:19.447Z,7.93
2018-09-23T12:29:22.487Z,6.43
2018-09-23T12:31:25.532Z,6.33
2018-09-23T12:33:30.069Z,6.63
2018-09-23T12:35:33.167Z,7.03
2018-09-23T12:37:36.212Z,6.83
2018-09-23T12:39:39.258Z,8.90
2018-09-23T12:41:42.389Z,8.83
2018-09-23T12:43:45.424Z,8.83
2018-09-23T12:45:48.539Z,8.97
2018-09-23T12:47:51.774Z,9.83
2018-09-23T12:49:54.874Z,8.40
2018-09-23T12:51:59.310Z,8.17
2018-09-23T12:54:02.402Z,8.97
2018-09-23T12:56:05.570Z,9.40
2018-09-23T12:58:08.687Z,9.87
2018-09-23T13:00:11.697Z,7.87
2018-09-23T13:02:14.844Z,10.10
2018-09-23T13:04:17.839Z,8.40
2018-09-23T13:06:20.874Z,9.20
2018-09-23T13:08:24.077Z,9.73
2018-09-23T13:10:27.549Z,8.13
2018-09-23T13:12:30.589Z,9.00
2018-09-23T13:14:33.647Z,8.50
2018-09-23T13:16:36.745Z,10.40
2018-09-23T13:18:39.782Z,9.23
2018-09-23T13:20:42.908Z,8.80
2018-09-23T13:22:45.949Z,10.30
2018-09-23T13:24:49.156Z,9.93
2018-09-23T13:26:52.151Z,9.70
2018-09-23T13:28:55.310Z,9.60
2018-09-23T13:31:00.158Z,11.30
2018-09-23T13:33:03.197Z,9.97
2018-09-23T13:35:06.237Z,9.40
2018-09-23T13:37:09.228Z,9.50
2018-09-23T13:39:12.520Z,9.90
2018-09-23T13:41:15.527Z,10.17
2018-09-23T13:43:18.531Z,9.90
2018-09-23T13:45:21.646Z,9.97
2018-09-23T13:47:24.702Z,9.60
2018-09-23T13:49:29.333Z,9.00
2018-09-23T13:51:32.368Z,9.57
2018-09-23T13:53:35.400Z,10.60
2018-09-23T13:55:38.572Z,9.73
2018-09-23T13:57:41.577Z,10.00
2018-09-23T13:59:44.539Z,11.00
2018-09-23T14:01:47.550Z,9.47
2018-09-23T14:03:50.519Z,10.57
2018-09-23T14:05:53.584Z,10.10
2018-09-23T14:07:59.197Z,10.13
2018-09-23T14:10:02.230Z,10.33
2018-09-23T14:12:06.174Z,9.93
2018-09-23T14:14:09.233Z,11.03
2018-09-23T14:16:12.314Z,10.80
2018-09-23T14:18:15.622Z,9.50
2018-09-23T14:20:18.621Z,9.23
2018-09-23T14:22:21.605Z,9.97
2018-09-23T14:24:24.680Z,10.70
2018-09-23T14:26:29.307Z,9.37
2018-09-23T14:28:32.331Z,9.20
2018-09-23T14:30:35.374Z,9.30
2018-09-23T14:32:38.552Z,9.67
2018-09-23T14:34:41.551Z,9.97
2018-09-23T14:36:44.559Z,10.67
2018-09-23T14:38:47.588Z,11.03
2018-09-23T14:40:50.581Z,9.27
2018-09-23T14:42:53.598Z,9.20
2018-09-23T14:44:58.161Z,10.47
2018-09-23T14:47:01.159Z,11.10
2018-09-23T14:49:04.213Z,10.30
2018-09-23T14:51:07.234Z,10.87
2018-09-23T14:53:10.240Z,10.67
2018-09-23T14:55:13.308Z,10.07
2018-09-23T14:57:16.341Z,11.07
2018-09-23T14:59:19.380Z,9.60
2018-09-23T15:01:22.386Z,9.97
2018-09-23T15:03:25.729Z,9.93
2018-09-23T15:05:29.917Z,11.60
2018-09-23T15:07:32.929Z,10.90
2018-09-23T15:09:35.986Z,9.87
2018-09-23T15:11:39.053Z,10.90
2018-09-23T15:13:42.104Z,10.37
2018-09-23T15:15:45.288Z,10.50
2018-09-23T15:17:48.313Z,9.43
2018-09-23T15:19:51.415Z,10.60
2018-09-23T15:21:54.636Z,9.50
2018-09-23T15:23:59.453Z,9.20
2018-09-23T15:26:02.581Z,8.93
2018-09-23T15:28:05.856Z,10.03
2018-09-23T15:30:08.883Z,10.27
2018-09-23T15:32:11.983Z,8.80
2018-09-23T15:34:15.132Z,9.10
2018-09-23T15:36:18.182Z,7.80
2018-09-23T15:38:21.211Z,9.03
2018-09-23T15:40:24.353Z,9.00
2018-09-23T15:42:28.978Z,9.90
2018-09-23T15:44:31.994Z,9.33
2018-09-23T15:46:35.069Z,9.13
2018-09-23T15:48:38.103Z,8.53
2018-09-23T15:50:41.502Z,10.80
2018-09-23T15:52:44.565Z,12.00
2018-09-23T15:54:47.623Z,19.77
2018-09-23T15:56:50.735Z,21.73
2018-09-23T15:58:53.794Z,13.20
2018-09-23T16:00:58.541Z,17.87
2018-09-23T16:03:01.782Z,16.93
2018-09-23T16:05:04.965Z,13.33
2018-09-23T16:07:08.078Z,10.73
2018-09-23T16:09:11.169Z,10.90
2018-09-23T16:11:14.225Z,8.23
2018-09-23T16:13:17.259Z,6.80
2018-09-23T16:15:20.769Z,8.13
2018-09-23T16:17:23.946Z,6.67
2018-09-23T16:19:28.867Z,6.43
2018-09-23T16:21:31.991Z,5.47
2018-09-23T16:23:35.039Z,6.10
2018-09-23T16:25:38.046Z,5.60
2018-09-23T16:27:41.189Z,6.73
2018-09-23T16:29:44.192Z,7.13
2018-09-23T16:31:47.278Z,7.03
2018-09-23T16:33:50.365Z,6.13
2018-09-23T16:35:53.439Z,6.40
2018-09-23T16:37:58.188Z,5.70
2018-09-23T16:40:01.250Z,5.77
2018-09-23T16:42:04.331Z,5.63
2018-09-23T16:44:08.100Z,5.80
2018-09-23T16:46:11.348Z,5.57
2018-09-23T16:48:14.559Z,6.27
2018-09-23T16:50:18.267Z,5.93
2018-09-23T16:52:22.046Z,6.43
2018-09-23T16:54:28.002Z,6.20
2018-09-23T16:56:31.478Z,6.53
2018-09-23T16:58:35.322Z,5.90
2018-09-23T17:00:39.238Z,6.00
2018-09-23T17:02:43.719Z,5.37
2018-09-23T17:04:47.591Z,5.43
2018-09-23T17:06:51.355Z,4.70
2018-09-23T17:08:55.085Z,4.10
2018-09-23T17:11:00.050Z,4.43
2018-09-23T17:13:03.832Z,3.73
2018-09-23T17:15:07.490Z,3.63
2018-09-23T17:17:10.974Z,3.63
2018-09-23T17:19:15.043Z,3.37
2018-09-23T17:21:18.908Z,4.10
2018-09-23T17:23:22.371Z,4.13
2018-09-23T17:25:27.958Z,3.70
2018-09-23T17:27:31.586Z,4.83
2018-09-23T17:29:35.425Z,4.00
2018-09-23T17:31:39.377Z,4.97
2018-09-23T17:33:42.708Z,4.73
2018-09-23T17:35:45.975Z,4.97
2018-09-23T17:37:50.092Z,5.20
2018-09-23T17:39:54.038Z,5.30
2018-09-23T17:41:59.111Z,5.40
2018-09-23T17:44:02.821Z,4.20
2018-09-23T17:46:06.768Z,4.13
2018-09-23T17:48:10.023Z,3.70
2018-09-23T17:50:13.903Z,4.90
2018-09-23T17:52:17.800Z,2.97
2018-09-23T17:54:21.737Z,4.13
2018-09-23T17:56:27.450Z,3.77
2018-09-23T17:58:30.885Z,4.17
2018-09-23T18:00:34.705Z,4.80
2018-09-23T18:02:38.452Z,5.00
2018-09-23T18:04:42.154Z,5.80
2018-09-23T18:06:46.111Z,5.30
2018-09-23T18:08:50.090Z,6.30
2018-09-23T18:10:53.798Z,4.80
2018-09-23T18:12:58.951Z,4.30
2018-09-23T18:15:03.125Z,4.17
2018-09-23T18:17:07.219Z,3.80
2018-09-23T18:19:11.013Z,4.30
2018-09-23T18:21:15.083Z,2.80
2018-09-23T18:23:19.033Z,3.27
2018-09-23T18:25:23.140Z,3.40
2018-09-23T18:27:28.774Z,3.73
2018-09-23T18:29:32.180Z,3.47
2018-09-23T18:31:36.110Z,3.03
2018-09-23T18:33:40.021Z,3.17
2018-09-23T18:35:43.032Z,4.03
2018-09-23T18:37:46.084Z,3.50
2018-09-23T18:39:49.141Z,3.50
2018-09-23T18:41:52.929Z,4.17
2018-09-23T18:43:58.644Z,3.97
2018-09-23T18:46:02.479Z,4.30
2018-09-23T18:48:05.688Z,3.80
2018-09-23T18:50:09.607Z,4.53
2018-09-23T18:52:13.537Z,4.40
2018-09-23T18:54:22.621Z,4.27
2018-09-23T18:56:27.879Z,5.77
2018-09-23T18:58:31.326Z,4.20
2018-09-23T19:00:34.691Z,4.87
2018-09-23T19:02:38.835Z,3.90
2018-09-23T19:04:42.710Z,4.03
2018-09-23T19:06:46.863Z,12.27
2018-09-23T19:08:50.787Z,2.90
2018-09-23T19:10:54.290Z,3.37
2018-09-23T19:13:04.683Z,2.63
2018-09-23T19:15:08.011Z,2.97
2018-09-23T19:17:11.241Z,3.10
2018-09-23T19:19:14.505Z,2.70
2018-09-23T19:21:17.529Z,3.30
2018-09-23T19:23:21.432Z,2.53
2018-09-23T19:25:25.190Z,3.70
2018-09-23T19:27:29.967Z,3.33
2018-09-23T19:29:34.516Z,2.80
2018-09-23T19:31:38.461Z,3.00
2018-09-23T19:33:41.623Z,3.50
2018-09-23T19:35:44.964Z,2.97
2018-09-23T19:37:48.770Z,3.30
2018-09-23T19:39:51.860Z,2.90
2018-09-23T19:41:55.526Z,2.40
2018-09-23T19:44:00.706Z,2.60
2018-09-23T19:46:05.469Z,2.50
2018-09-23T19:48:08.552Z,2.80
2018-09-23T19:50:11.603Z,2.80
2018-09-23T19:52:14.722Z,2.60
2018-09-23T19:54:17.775Z,2.30
2018-09-23T19:56:20.801Z,2.40
2018-09-23T19:58:23.857Z,4.03
2018-09-23T20:00:28.528Z,3.50
2018-09-23T20:02:31.594Z,2.87
2018-09-23T20:04:34.669Z,2.53
2018-09-23T20:06:37.835Z,3.50
2018-09-23T20:08:40.827Z,3.33
2018-09-23T20:10:43.921Z,3.37
2018-09-23T20:12:46.929Z,3.30
2018-09-23T20:14:50.259Z,2.97
2018-09-23T20:16:53.736Z,3.00
2018-09-23T20:18:58.237Z,3.40
2018-09-23T20:21:01.296Z,3.60
2018-09-23T20:23:19.945Z,3.37
2018-09-23T20:25:29.816Z,3.33
2018-09-23T20:27:32.873Z,3.10
2018-09-23T20:29:36.145Z,3.60
2018-09-23T20:31:40.417Z,3.97
2018-09-23T20:33:44.185Z,3.70
2018-09-23T20:35:47.295Z,3.33
2018-09-23T20:37:50.437Z,2.87
2018-09-23T20:39:53.577Z,3.80
2018-09-23T20:41:56.807Z,3.20
2018-09-23T20:43:59.949Z,3.60
2018-09-23T20:46:03.040Z,3.77
2018-09-23T20:48:06.148Z,6.00
2018-09-23T20:50:21.393Z,4.03
2018-09-23T20:52:24.495Z,6.23
2018-09-23T20:54:29.543Z,4.20
2018-09-23T20:56:32.738Z,4.40
2018-09-23T20:58:35.766Z,7.03
2018-09-23T21:00:38.800Z,6.53
2018-09-23T21:02:42.253Z,5.00
2018-09-23T21:04:45.511Z,4.87
2018-09-23T21:06:48.572Z,4.70
2018-09-23T21:08:51.780Z,5.40
2018-09-23T21:10:54.844Z,5.60
2018-09-23T21:12:59.741Z,4.80
2018-09-23T21:15:03.017Z,5.10
2018-09-23T21:17:06.075Z,4.67
2018-09-23T21:19:09.099Z,5.47
2018-09-23T21:21:12.150Z,4.70
2018-09-23T21:23:15.200Z,4.23
2018-09-23T21:25:18.210Z,4.90
2018-09-23T21:27:21.279Z,5.20
2018-09-23T21:29:24.313Z,6.60
2018-09-23T21:31:28.449Z,5.33
2018-09-23T21:33:31.703Z,4.27
2018-09-23T21:35:34.737Z,4.87
2018-09-23T21:37:37.762Z,4.77
2018-09-23T21:39:40.810Z,4.57
2018-09-23T21:41:43.867Z,4.07
2018-09-23T21:43:46.979Z,4.60
2018-09-23T21:45:50.325Z,3.87
2018-09-23T21:47:53.360Z,4.47
2018-09-23T21:49:58.069Z,4.20
2018-09-23T21:52:01.129Z,4.23
2018-09-23T21:54:04.575Z,4.20
2018-09-23T21:56:07.639Z,4.27
2018-09-23T21:58:10.728Z,4.20
2018-09-23T22:00:13.803Z,3.87
2018-09-23T22:02:17.019Z,4.20
2018-09-23T22:04:20.193Z,5.03
2018-09-23T22:06:23.339Z,3.87
2018-09-23T22:08:28.716Z,5.00
2018-09-23T22:10:31.758Z,4.03
2018-09-23T22:12:34.849Z,4.53
2018-09-23T22:14:38.107Z,4.40
2018-09-23T22:16:41.143Z,5.00
2018-09-23T22:18:44.136Z,4.33
2018-09-23T22:20:47.216Z,4.80
2018-09-23T22:22:50.302Z,4.43
2018-09-23T22:24:53.366Z,4.83
2018-09-23T22:26:58.071Z,4.87
2018-09-23T22:29:01.309Z,4.73
2018-09-23T22:31:04.395Z,5.10
2018-09-23T22:33:07.402Z,4.13
2018-09-23T22:35:10.442Z,4.23
2018-09-23T22:37:13.493Z,4.37
2018-09-23T22:39:16.503Z,3.83
2018-09-23T22:41:19.513Z,3.93
2018-09-23T22:43:22.571Z,4.47
2018-09-23T22:45:25.655Z,3.20
2018-09-23T22:47:28.776Z,3.23
2018-09-23T22:49:31.884Z,3.50
2018-09-23T22:51:34.934Z,3.60
2018-09-23T22:53:37.949Z,3.67
2018-09-23T22:55:41.133Z,3.87
2018-09-23T22:57:44.309Z,3.57
2018-09-23T22:59:47.556Z,3.20
2018-09-23T23:01:50.570Z,3.90
2018-09-23T23:03:53.670Z,3.80
2018-09-23T23:05:58.221Z,4.30
2018-09-23T23:08:01.807Z,4.77
2018-09-23T23:10:04.885Z,4.20
2018-09-23T23:12:08.000Z,4.40
2018-09-23T23:14:11.026Z,4.20
2018-09-23T23:16:14.071Z,4.40
2018-09-23T23:18:17.308Z,4.07
2018-09-23T23:20:20.334Z,5.00
2018-09-23T23:22:23.351Z,4.60
2018-09-23T23:24:28.128Z,5.63
2018-09-23T23:26:31.184Z,5.97
2018-09-23T23:28:34.291Z,6.83
2018-09-23T23:30:37.517Z,6.28
2018-09-23T23:32:40.695Z,7.60
2018-09-23T23:34:44.125Z,7.13
2018-09-23T23:36:47.287Z,8.50
2018-09-23T23:38:50.310Z,7.37
2018-09-23T23:40:53.390Z,7.40
2018-09-23T23:42:57.944Z,8.03
2018-09-23T23:45:00.965Z,8.53
2018-09-23T23:47:04.249Z,8.73
2018-09-23T23:49:07.798Z,8.10
2018-09-23T23:51:12.507Z,8.47
2018-09-23T23:53:15.560Z,9.67
2018-09-23T23:55:18.921Z,8.53
2018-09-23T23:57:21.924Z,8.40
2018-09-23T23:59:24.906Z,8.10
